Time;durP1;ratioP1;P1;durP2;ratioP2;P2;SDS_P1;SDS_P2;PMS_P1;PMS_P2;Temp;Humidity;BMP_temperature;BMP_pressure;BME280_temperature;BME280_humidity;BME280_pressure;Samples;Min_cycle;Max_cycle;Signal;HPM_P1;HPM_P2
2021/11/09 00:02:12;;;;;;;;;49.25;41.75;;;;;11.78;59.86;102132.59;5060505;28;45449;-69
2021/11/09 00:04:41;;;;;;;;;52.00;43.75;;;;;11.80;60.40;102137.00;5060221;28;45390;-69
2021/11/09 00:09:56;;;;;;;;;49.75;40.75;;;;;11.78;60.12;102124.59;5060166;28;45155;-69
2021/11/09 00:12:24;;;;;;;;;52.25;42.75;;;;;11.77;59.91;102126.34;5060307;28;45298;-69
2021/11/09 00:14:49;;;;;;;;;55.50;45.00;;;;;11.75;60.27;102117.47;5060199;28;45541;-69
2021/11/09 00:17:15;;;;;;;;;54.75;45.00;;;;;11.73;59.96;102121.97;5059986;28;45350;-69
2021/11/09 00:19:40;;;;;;;;;55.00;43.25;;;;;11.73;60.20;102116.63;5060207;28;45336;-69
2021/11/09 00:22:06;;;;;;;;;48.50;39.25;;;;;11.66;60.40;102110.47;5060195;28;45295;-69
2021/11/09 00:24:31;;;;;;;;;57.00;44.00;;;;;11.70;60.23;102111.31;5060243;28;45532;-69
2021/11/09 00:26:56;;;;;;;;;52.25;43.00;;;;;11.67;60.52;102112.22;5058460;28;48403;-69
2021/11/09 00:29:22;;;;;;;;;57.50;44.75;;;;;11.62;60.29;102106.06;5059994;28;45530;-69
2021/11/09 00:31:47;;;;;;;;;57.50;46.50;;;;;11.63;60.23;102115.00;5060073;28;45328;-69
2021/11/09 00:34:12;;;;;;;;;58.75;46.00;;;;;11.60;60.82;102109.69;5058454;28;45629;-69
2021/11/09 00:36:38;;;;;;;;;57.00;44.75;;;;;11.62;60.58;102114.09;5059720;28;45282;-70
2021/11/09 00:39:06;;;;;;;;;55.75;45.00;;;;;11.57;60.53;102105.25;5060041;28;45227;-69
2021/11/09 00:41:31;;;;;;;;;54.75;45.50;;;;;11.56;60.48;102102.59;5054448;28;45683;-69
2021/11/09 00:43:57;;;;;;;;;60.25;47.50;;;;;11.57;60.34;102107.06;5051858;28;45321;-69
2021/11/09 00:46:22;;;;;;;;;55.50;46.00;;;;;11.57;60.48;102099.91;5059398;28;46272;-69
2021/11/09 00:48:47;;;;;;;;;59.00;46.50;;;;;11.57;60.42;102101.69;5059762;28;45375;-69
2021/11/09 00:51:13;;;;;;;;;58.25;44.75;;;;;11.53;60.38;102098.19;5046366;28;45322;-69
2021/11/09 00:53:39;;;;;;;;;53.50;43.75;;;;;11.54;60.83;102094.59;5059167;28;45322;-69
2021/11/09 00:56:04;;;;;;;;;52.25;44.25;;;;;11.54;60.81;102109.75;5059629;28;45999;-69
2021/11/09 00:58:30;;;;;;;;;59.75;46.75;;;;;11.46;60.64;102108.09;5059878;28;45450;-69
2021/11/09 01:00:55;;;;;;;;;51.75;43.00;;;;;11.47;60.73;102112.53;5058011;28;45830;-69
2021/11/09 01:03:21;;;;;;;;;53.75;45.00;;;;;11.46;60.78;102112.53;5059798;28;45310;-69
2021/11/09 01:05:46;;;;;;;;;55.00;46.25;;;;;11.44;60.26;102119.69;5059420;28;45371;-69
2021/11/09 01:08:15;;;;;;;;;58.00;45.50;;;;;11.42;60.74;102116.19;5059629;28;45325;-69
2021/11/09 01:10:46;;;;;;;;;49.50;42.50;;;;;11.39;60.77;102114.41;5059352;28;45371;-69
2021/11/09 01:13:12;;;;;;;;;49.00;41.50;;;;;11.39;60.35;102119.75;5059582;28;45398;-69
2021/11/09 01:15:43;;;;;;;;;48.75;41.25;;;;;11.36;60.41;102119.84;5059190;28;45291;-69
2021/11/09 01:18:08;;;;;;;;;48.25;37.75;;;;;11.36;60.45;102125.19;5059325;28;45406;-69
2021/11/09 01:20:35;;;;;;;;;47.00;39.75;;;;;11.32;60.59;102118.97;5059450;28;45369;-69
2021/11/09 01:23:01;;;;;;;;;49.00;38.00;;;;;11.31;60.45;102121.69;5046951;28;45483;-69
2021/11/09 01:25:27;;;;;;;;;48.25;38.75;;;;;11.31;60.23;102122.56;5058534;28;46482;-69
2021/11/09 01:27:53;;;;;;;;;41.75;37.00;;;;;11.26;60.39;102120.84;5059507;28;45429;-69
2021/11/09 01:30:19;;;;;;;;;45.00;38.25;;;;;11.26;60.07;102127.09;5059387;28;45242;-69
2021/11/09 01:32:47;;;;;;;;;42.50;35.50;;;;;11.25;59.95;102119.97;5058734;28;45236;-69
2021/11/09 01:35:13;;;;;;;;;41.00;37.25;;;;;11.20;60.44;102108.44;5046053;28;45460;-69
2021/11/09 01:37:39;;;;;;;;;38.75;35.75;;;;;11.20;60.51;102118.25;5059323;28;45429;-69
2021/11/09 01:40:07;;;;;;;;;49.00;37.25;;;;;11.17;60.54;102127.19;5059580;28;45240;-69
2021/11/09 01:42:33;;;;;;;;;45.50;38.50;;;;;11.16;60.21;102135.22;5059245;28;45263;-69
2021/11/09 01:44:59;;;;;;;;;42.75;36.75;;;;;11.13;60.13;102136.16;5059007;28;45334;-69
2021/11/09 01:47:25;;;;;;;;;49.25;40.75;;;;;11.11;60.50;102135.31;5059066;28;45228;-69
2021/11/09 01:49:51;;;;;;;;;52.00;40.25;;;;;11.08;60.52;102133.53;5052686;28;45491;-69
2021/11/09 01:52:16;;;;;;;;;44.00;38.75;;;;;11.05;60.40;102124.69;5050757;28;45386;-69
2021/11/09 01:54:41;;;;;;;;;49.25;40.00;;;;;10.98;60.25;102126.53;5058887;28;45302;-69
2021/11/09 01:57:07;;;;;;;;;46.75;38.25;;;;;11.00;60.41;102132.75;5059046;28;45302;-69
2021/11/09 01:59:32;;;;;;;;;43.00;37.25;;;;;10.97;60.57;102130.09;5058855;28;45383;-69
2021/11/09 02:01:58;;;;;;;;;45.00;37.25;;;;;10.95;60.42;102126.56;5058631;28;45901;-69
2021/11/09 02:04:24;;;;;;;;;47.25;40.00;;;;;10.96;60.33;102131.03;5058735;28;45398;-69
2021/11/09 02:06:50;;;;;;;;;44.25;37.25;;;;;10.95;60.70;102126.56;5062430;28;45315;-69
2021/11/09 02:09:18;;;;;;;;;41.75;37.00;;;;;10.94;60.60;102136.38;5061622;28;45322;-69
2021/11/09 02:11:47;;;;;;;;;45.00;37.25;;;;;10.91;60.96;102119.50;5061840;28;45338;-69
2021/11/09 02:14:13;;;;;;;;;49.75;39.75;;;;;10.96;60.69;102130.13;5061430;28;46347;-69
2021/11/09 02:16:39;;;;;;;;;46.25;36.75;;;;;10.91;60.59;102122.19;5062079;28;45428;-69
2021/11/09 02:19:06;;;;;;;;;49.00;40.50;;;;;10.93;60.56;102125.72;5062331;28;45338;-69
2021/11/09 02:21:32;;;;;;;;;51.50;40.00;;;;;10.90;60.99;102126.63;5062082;28;45324;-69
2021/11/09 02:23:58;;;;;;;;;47.50;39.50;;;;;10.87;60.72;102123.97;5062080;28;45419;-69
2021/11/09 02:26:24;;;;;;;;;46.25;37.75;;;;;10.84;60.27;102123.13;5061837;28;45188;-69
2021/11/09 02:28:53;;;;;;;;;45.75;37.00;;;;;10.79;60.38;102116.97;5048693;28;45369;-69
2021/11/09 02:31:18;;;;;;;;;42.75;36.50;;;;;10.81;60.63;102129.41;5061590;28;45505;-69
2021/11/09 02:33:44;;;;;;;;;44.75;39.25;;;;;10.75;60.71;102133.00;5061713;28;46108;-69
2021/11/09 02:36:10;;;;;;;;;44.00;37.75;;;;;10.77;60.76;102141.00;5061725;28;45466;-69
2021/11/09 02:38:36;;;;;;;;;41.25;38.00;;;;;10.74;60.73;102141.94;5062088;28;45362;-69
2021/11/09 02:41:02;;;;;;;;;48.50;41.00;;;;;10.74;60.79;102146.38;5061788;28;45519;-69
2021/11/09 02:43:28;;;;;;;;;50.75;40.00;;;;;10.71;61.21;102143.78;5061689;28;47127;-69
2021/11/09 02:46:23;;;;;;;;;45.75;40.00;;;;;10.72;60.79;102145.53;5061430;28;45248;-69
2021/11/09 02:48:52;;;;;;;;;56.25;40.75;;;;;10.69;60.54;102138.44;5061394;28;46736;-69
2021/11/09 02:51:22;;;;;;;;;45.00;37.00;;;;;10.69;60.69;102140.22;5048187;28;45318;-69
2021/11/09 02:53:54;;;;;;;;;45.25;37.50;;;;;10.67;60.60;102142.91;5061461;28;47634;-69
2021/11/09 02:56:26;;;;;;;;;54.50;42.00;;;;;10.62;60.77;102130.50;5061435;28;45737;-69
2021/11/09 03:04:07;;;;;;;;;51.50;43.00;;;;;10.63;60.90;102145.63;5060184;28;45406;-69
2021/11/09 03:06:38;;;;;;;;;49.00;40.50;;;;;10.61;61.29;102137.63;5061486;28;45626;-69
2021/11/09 03:09:14;;;;;;;;;46.00;38.25;;;;;10.61;61.33;102144.75;5061406;28;45302;-69
2021/11/09 03:11:48;;;;;;;;;45.50;37.25;;;;;10.59;61.19;102139.41;5053758;28;45517;-69
2021/11/09 03:14:14;;;;;;;;;54.25;44.75;;;;;10.56;61.17;102134.13;5060907;28;46192;-69
2021/11/09 03:16:42;;;;;;;;;54.75;43.50;;;;;10.57;61.39;102136.78;5060550;28;45466;-69
2021/11/09 03:19:56;;;;;;;;;54.50;42.25;;;;;10.53;61.07;102126.16;5061125;28;45353;-69
2021/11/09 03:46:41;;;;;;;;;64.25;50.25;;;;;10.38;61.80;102136.06;5047170;28;45343;-69
2021/11/09 03:49:07;;;;;;;;;63.25;49.50;;;;;10.41;61.58;102132.50;5060582;28;45904;-69
2021/11/09 03:51:34;;;;;;;;;57.25;48.25;;;;;10.37;61.55;102131.66;5047271;28;45438;-69
2021/11/09 03:54:02;;;;;;;;;61.00;48.50;;;;;10.41;61.63;102140.50;5060738;28;45355;-69
2021/11/09 03:56:38;;;;;;;;;64.00;50.25;;;;;10.41;61.16;102135.16;5060364;28;46213;-69
2021/11/09 03:59:08;;;;;;;;;60.75;48.50;;;;;10.41;61.28;102131.59;5060382;28;45197;-69
2021/11/09 04:01:43;;;;;;;;;55.25;46.00;;;;;10.36;61.24;102132.53;5060203;28;45366;-69
2021/11/09 04:04:34;;;;;;;;;51.50;41.50;;;;;10.33;61.78;102131.69;5060483;28;45329;-69
2021/11/09 04:10:10;;;;;;;;;47.00;38.75;;;;;10.37;61.18;102133.41;5047555;28;45822;-69
2021/11/09 04:15:08;;;;;;;;;48.25;39.75;;;;;10.40;61.52;102145.84;5060087;28;45426;-69
2021/11/09 04:31:03;;;;;;;;;44.75;37.00;;;;;10.24;60.98;102143.28;5059682;28;45707;-69
2021/11/09 04:34:31;;;;;;;;;45.25;38.50;;;;;10.29;60.77;102144.13;5059879;28;45474;-69
2021/11/09 05:10:52;;;;;;;;;38.00;33.75;;;;;10.11;61.02;102176.31;5059259;28;45447;-69
2021/11/09 05:13:17;;;;;;;;;32.25;30.50;;;;;10.11;60.65;102174.53;5059578;28;45409;-69
2021/11/09 05:15:43;;;;;;;;;38.00;32.50;;;;;10.08;61.15;102174.53;5059480;28;45339;-69
2021/11/09 05:18:09;;;;;;;;;41.25;36.00;;;;;10.09;61.26;102178.09;5059214;28;45358;-69
2021/11/09 05:20:34;;;;;;;;;36.25;35.25;;;;;10.05;60.62;102174.56;5059242;28;46098;-69
2021/11/09 05:22:59;;;;;;;;;39.00;34.75;;;;;10.02;61.03;102172.81;5059362;28;45310;-69
2021/11/09 05:25:26;;;;;;;;;45.25;37.25;;;;;10.06;61.53;102175.47;5059361;28;45319;-69
2021/11/09 05:27:52;;;;;;;;;52.25;43.50;;;;;10.07;61.58;102177.22;5059335;28;45145;-69
2021/11/09 05:30:17;;;;;;;;;58.50;49.50;;;;;10.14;61.63;102190.50;5058767;28;46158;-69
2021/11/09 05:32:44;;;;;;;;;65.50;52.25;;;;;10.15;61.75;102186.94;5059167;28;45224;-69
2021/11/09 05:35:10;;;;;;;;;66.50;52.50;;;;;10.19;61.59;102195.81;5059410;28;45430;-69
2021/11/09 05:37:56;;;;;;;;;62.25;50.75;;;;;10.22;61.74;102202.91;5059154;28;45449;-69
2021/11/09 05:40:28;;;;;;;;;62.75;49.00;;;;;10.19;61.49;102207.38;5050705;28;45486;-69
2021/11/09 05:42:53;;;;;;;;;59.50;48.75;;;;;10.17;61.56;102195.84;5062682;28;45231;-69
2021/11/09 05:45:19;;;;;;;;;57.00;45.25;;;;;10.17;61.83;102201.16;5062804;28;45270;-69
2021/11/09 05:47:44;;;;;;;;;57.25;43.00;;;;;10.15;61.12;102202.06;5062366;28;45236;-69
2021/11/09 05:50:10;;;;;;;;;54.00;45.75;;;;;10.15;61.88;102202.06;5054798;28;46090;-69
2021/11/09 05:52:36;;;;;;;;;54.00;44.75;;;;;10.15;61.36;102200.28;5056532;28;45207;-69
2021/11/09 05:55:03;;;;;;;;;58.75;44.00;;;;;10.16;61.68;102203.84;5062666;28;45319;-69
2021/11/09 05:57:28;;;;;;;;;56.25;44.25;;;;;10.16;61.68;102207.38;5062625;28;45462;-69
2021/11/09 05:59:53;;;;;;;;;60.25;47.25;;;;;10.12;61.19;102210.09;5062165;28;45396;-69
2021/11/09 06:02:19;;;;;;;;;55.00;45.00;;;;;10.13;61.24;102211.88;5061541;28;45390;-69
2021/11/09 06:04:44;;;;;;;;;54.00;45.50;;;;;10.10;61.43;102206.53;5062485;28;44745;-69
2021/11/09 06:07:09;;;;;;;;;57.50;45.00;;;;;10.16;61.75;102211.84;5061293;28;45416;-69
2021/11/09 06:09:35;;;;;;;;;56.75;45.00;;;;;10.14;61.67;102217.19;5048332;28;45303;-69
2021/11/09 06:12:00;;;;;;;;;53.00;42.00;;;;;10.19;61.11;102226.06;5062109;28;45277;-69
2021/11/09 06:14:25;;;;;;;;;50.25;40.75;;;;;10.15;61.30;102226.94;5062351;28;45349;-69
2021/11/09 06:16:51;;;;;;;;;57.00;44.00;;;;;10.13;61.19;102234.09;5062077;28;45235;-69
2021/11/09 06:19:16;;;;;;;;;56.25;47.25;;;;;10.13;61.36;102233.22;5062160;28;45356;-69
2021/11/09 06:21:41;;;;;;;;;52.75;42.00;;;;;10.17;61.58;102242.94;5062053;28;45217;-69
2021/11/09 06:24:07;;;;;;;;;39.25;37.00;;;;;10.19;61.63;102242.06;5061021;28;45247;-69
2021/11/09 06:26:34;;;;;;;;;48.75;42.00;;;;;10.20;61.65;102243.81;5048130;28;45429;-69
2021/11/09 06:29:00;;;;;;;;;41.00;37.00;;;;;10.18;61.11;102239.41;5060835;28;46079;-69
2021/11/09 06:31:29;;;;;;;;;47.50;38.75;;;;;10.19;61.14;102247.41;5059304;28;45448;-69
2021/11/09 06:33:54;;;;;;;;;53.25;42.25;;;;;10.19;61.43;102235.84;5061698;28;45501;-69
2021/11/09 06:36:19;;;;;;;;;50.50;40.00;;;;;10.19;61.48;102241.19;5061699;28;45339;-69
2021/11/09 06:38:46;;;;;;;;;43.75;36.00;;;;;10.17;61.38;102243.88;5060648;28;45451;-69
2021/11/09 06:41:11;;;;;;;;;42.00;36.00;;;;;10.15;61.71;102245.63;5059747;28;45403;-69
2021/11/09 06:43:36;;;;;;;;;43.75;37.50;;;;;10.17;61.44;102248.28;5061424;28;45503;-69
2021/11/09 06:46:02;;;;;;;;;40.50;33.50;;;;;10.17;61.25;102250.97;5061516;28;45414;-69
2021/11/09 06:48:28;;;;;;;;;41.75;37.75;;;;;10.17;60.98;102256.28;5061145;28;46125;-73
2021/11/09 06:50:54;;;;;;;;;46.75;37.00;;;;;10.13;61.54;102251.88;5060292;28;45204;-70
2021/11/09 06:53:20;;;;;;;;;40.00;37.00;;;;;10.16;61.22;102263.44;5061768;28;45206;-70
2021/11/09 06:55:46;;;;;;;;;38.00;34.50;;;;;10.17;61.66;102258.97;5060092;28;45905;-73
2021/11/09 06:58:12;;;;;;;;;40.25;34.00;;;;;10.14;61.43;102254.56;5060181;28;47333;-72
2021/11/09 07:00:37;;;;;;;;;34.75;33.25;;;;;10.15;61.18;102261.63;5059422;28;45485;-70
2021/11/09 07:03:03;;;;;;;;;34.50;32.75;;;;;10.14;61.10;102261.66;5061405;28;45307;-71
2021/11/09 07:05:29;;;;;;;;;35.25;33.25;;;;;10.12;61.57;102266.13;5061129;28;45458;-71
2021/11/09 07:07:54;;;;;;;;;38.75;33.50;;;;;10.10;61.57;102254.56;5061189;28;45524;-70
2021/11/09 07:10:20;;;;;;;;;37.00;34.75;;;;;10.06;61.53;102260.84;5059297;28;45430;-70
2021/11/09 07:12:46;;;;;;;;;42.75;37.75;;;;;10.07;61.23;102262.59;5060968;28;45401;-71
2021/11/09 07:15:13;;;;;;;;;38.00;31.25;;;;;10.06;61.10;102263.50;5059501;28;45261;-71
2021/11/09 07:17:39;;;;;;;;;40.50;35.00;;;;;10.07;61.62;102273.25;5060840;28;45311;-71
2021/11/09 07:20:13;;;;;;;;;38.00;34.75;;;;;10.00;61.55;102267.06;5060618;28;45823;-71
2021/11/09 07:22:39;;;;;;;;;38.50;35.25;;;;;9.99;61.28;102270.66;5061076;28;45365;-71
2021/11/09 07:25:05;;;;;;;;;42.25;37.00;;;;;10.02;61.63;102273.28;5059910;28;45277;-71
2021/11/09 07:27:31;;;;;;;;;36.25;32.00;;;;;10.01;61.23;102280.41;5060545;28;45444;-71
2021/11/09 07:29:58;;;;;;;;;38.00;34.75;;;;;9.95;61.37;102272.44;5060261;28;45380;-71
2021/11/09 07:32:25;;;;;;;;;37.50;33.00;;;;;9.97;61.38;102273.34;5056621;28;45378;-71
2021/11/09 07:34:51;;;;;;;;;39.25;35.50;;;;;10.00;61.57;102281.28;5060111;28;45476;-71
2021/11/09 07:37:17;;;;;;;;;38.50;35.00;;;;;9.99;61.52;102279.53;5060753;28;46349;-71
2021/11/09 07:39:43;;;;;;;;;37.75;35.00;;;;;9.98;61.60;102291.09;5057539;28;45366;-70
2021/11/09 07:42:10;;;;;;;;;39.50;35.00;;;;;10.01;61.60;102285.75;5060682;28;45180;-71
2021/11/09 07:44:35;;;;;;;;;33.75;32.50;;;;;9.98;61.60;102299.09;5060274;28;45514;-70
2021/11/09 07:47:02;;;;;;;;;39.50;33.75;;;;;10.00;61.52;102299.09;5059246;28;46148;-72
2021/11/09 07:49:28;;;;;;;;;32.25;30.00;;;;;9.94;61.47;102292.00;5058872;28;45804;-72
2021/11/09 07:51:53;;;;;;;;;28.75;24.50;;;;;9.97;61.70;102310.69;5056060;28;45469;-72
2021/11/09 07:54:22;;;;;;;;;37.00;33.00;;;;;10.00;61.53;102305.31;5044625;28;46787;-72
2021/11/09 07:56:48;;;;;;;;;32.75;30.75;;;;;9.99;61.83;102297.34;5057895;28;47092;-71
2021/11/09 08:02:00;;;;;;;;;33.25;29.50;;;;;9.98;61.87;102300.88;5055220;28;45330;-71
2021/11/09 08:06:54;;;;;;;;;36.00;34.75;;;;;9.97;61.91;102301.78;5053928;28;45935;-71
2021/11/09 08:09:23;;;;;;;;;31.75;29.75;;;;;9.97;61.72;102307.09;5058622;28;45309;-71
2021/11/09 08:11:50;;;;;;;;;39.50;34.50;;;;;9.95;61.71;102300.91;5059795;28;45487;-71
2021/11/09 08:14:16;;;;;;;;;36.25;32.00;;;;;9.95;61.99;102303.56;5059159;28;45533;-70
2021/11/09 08:16:42;;;;;;;;;38.75;31.25;;;;;9.92;61.41;102306.25;5059516;28;45593;-70
2021/11/09 08:19:08;;;;;;;;;42.50;34.75;;;;;9.91;62.08;102302.69;5059761;28;45310;-71
2021/11/09 08:21:35;;;;;;;;;35.50;30.75;;;;;9.90;61.51;102306.25;5056293;28;45441;-71
2021/11/09 08:24:02;;;;;;;;;40.25;34.25;;;;;9.90;61.59;102308.91;5059673;28;45398;-71
2021/11/09 08:26:28;;;;;;;;;34.75;31.50;;;;;9.88;61.89;102305.38;5059203;28;45372;-72
2021/11/09 08:28:55;;;;;;;;;30.00;29.00;;;;;9.90;61.50;102314.25;5059547;28;45437;-71
2021/11/09 08:31:24;;;;;;;;;33.50;30.25;;;;;9.90;61.49;102314.25;5057526;28;45417;-71
2021/11/09 08:33:50;;;;;;;;;35.50;30.75;;;;;9.88;61.54;102316.03;5059345;27;45505;-71
2021/11/09 08:36:21;;;;;;;;;33.00;30.50;;;;;9.87;61.85;102316.94;5058935;28;46058;-70
2021/11/09 08:38:47;;;;;;;;;36.75;33.00;;;;;9.86;61.37;102314.28;5053431;28;45417;-70
2021/11/09 08:41:12;;;;;;;;;29.25;28.25;;;;;9.84;61.69;102316.97;5050838;28;45448;-71
2021/11/09 08:43:41;;;;;;;;;32.00;31.75;;;;;9.82;62.09;102308.06;5052681;28;45457;-71
2021/11/09 08:48:47;;;;;;;;;39.00;35.00;;;;;9.84;61.95;102308.97;5057508;28;45621;-71
2021/11/09 08:51:13;;;;;;;;;29.00;28.50;;;;;9.83;62.17;102313.38;5057372;28;45477;-71
2021/11/09 08:53:43;;;;;;;;;36.00;33.75;;;;;9.86;62.40;102314.28;5058870;28;45453;-71
2021/11/09 09:01:22;;;;;;;;;41.50;35.50;;;;;9.95;61.92;102316.91;5049483;28;45531;-72
2021/11/09 09:06:33;;;;;;;;;35.75;33.25;;;;;9.97;62.13;102318.69;5058475;28;45783;-70
2021/11/09 09:09:01;;;;;;;;;36.25;33.50;;;;;9.97;62.30;102312.44;5058864;28;45721;-71
2021/11/09 09:11:27;;;;;;;;;40.50;35.00;;;;;9.99;62.26;102314.22;5056157;28;45623;-70
2021/11/09 09:13:52;;;;;;;;;38.75;35.00;;;;;10.00;62.72;102307.97;5058173;28;45481;-71
2021/11/09 09:16:18;;;;;;;;;37.00;33.00;;;;;10.05;62.56;102307.06;5041910;28;45479;-72
2021/11/09 09:18:44;;;;;;;;;42.25;38.50;;;;;10.07;62.38;102310.63;5055159;28;45272;-72
2021/11/09 09:21:14;;;;;;;;;45.25;35.75;;;;;10.08;62.23;102305.28;5062080;28;45311;-71
2021/11/09 09:23:50;;;;;;;;;38.25;36.50;;;;;10.10;62.29;102302.59;5061702;28;45425;-71
2021/11/09 09:32:13;;;;;;;;;47.75;36.50;;;;;10.15;62.22;102301.66;5061778;28;45335;-71
2021/11/09 09:56:04;;;;;;;;;44.50;36.25;;;;;10.60;62.55;102300.53;5062020;28;45303;-71
2021/11/09 09:58:29;;;;;;;;;37.25;30.75;;;;;10.63;62.06;102303.19;5060110;28;45546;-71
2021/11/09 10:00:56;;;;;;;;;31.00;27.75;;;;;10.62;62.38;102290.72;5061595;28;45566;-71
2021/11/09 10:03:32;;;;;;;;;36.00;33.75;;;;;10.68;62.15;102296.91;5060664;28;45438;-71
2021/11/09 10:06:02;;;;;;;;;33.00;33.00;;;;;10.74;62.46;102294.19;5061735;28;45686;-71
2021/11/09 10:08:42;;;;;;;;;32.50;32.00;;;;;10.81;61.78;102294.13;5060748;28;45296;-71
2021/11/09 10:11:26;;;;;;;;;31.25;26.00;;;;;10.88;61.48;102295.84;5060471;28;45783;-71
2021/11/09 10:13:51;;;;;;;;;31.50;27.00;;;;;10.92;61.62;102287.78;5051502;28;45594;-71
2021/11/09 10:16:16;;;;;;;;;33.25;31.50;;;;;10.96;61.15;102283.31;5060989;28;45478;-72
2021/11/09 10:18:42;;;;;;;;;32.50;30.50;;;;;11.01;61.64;102284.16;5061408;28;46404;-71
2021/11/09 10:21:08;;;;;;;;;30.00;26.50;;;;;11.06;61.65;102282.31;5060477;28;45436;-71
2021/11/09 10:23:34;;;;;;;;;32.00;25.50;;;;;11.08;60.96;102279.66;5061351;28;45332;-71
2021/11/09 10:26:09;;;;;;;;;28.75;26.00;;;;;11.12;61.42;102284.03;5060239;28;45508;-71
2021/11/09 10:28:34;;;;;;;;;27.25;26.25;;;;;11.13;60.06;102277.81;5060917;28;46318;-71
2021/11/09 10:31:02;;;;;;;;;28.75;25.75;;;;;11.10;60.50;102281.38;5060555;28;45371;-71
2021/11/09 10:33:34;;;;;;;;;29.00;25.50;;;;;11.11;61.08;102275.16;5060308;28;45358;-71
2021/11/09 10:36:01;;;;;;;;;22.75;21.25;;;;;11.16;60.59;102269.75;5049833;28;45347;-71
2021/11/09 10:38:30;;;;;;;;;30.25;27.50;;;;;11.20;60.92;102268.81;5058169;28;46505;-71
2021/11/09 10:40:56;;;;;;;;;26.00;16.75;;;;;11.26;60.63;102271.44;5058475;28;45836;-71
2021/11/09 10:43:23;;;;;;;;;24.50;22.50;;;;;11.31;60.42;102263.38;5060815;28;45990;-70
2021/11/09 10:45:48;;;;;;;;;27.75;26.50;;;;;11.31;60.63;102258.91;5061189;28;45788;-70
2021/11/09 10:48:17;;;;;;;;;35.50;27.50;;;;;11.38;60.07;102266.84;5060373;28;46532;-71
2021/11/09 10:51:05;;;;;;;;;27.50;21.50;;;;;11.40;60.17;102262.38;5058767;28;45404;-71
2021/11/09 10:53:42;;;;;;;;;30.25;25.50;;;;;11.45;60.29;102273.91;5047535;28;45375;-69
2021/11/09 11:06:27;;;;;;;;;19.25;18.75;;;;;11.51;59.31;102257.78;5047690;28;45552;-66
2021/11/09 11:09:22;;;;;;;;;18.00;15.25;;;;;11.55;59.34;102261.31;5060591;28;46492;-66
2021/11/09 11:11:48;;;;;;;;;27.50;15.00;;;;;11.59;59.64;102255.88;5058175;28;45378;-66
2021/11/09 11:14:25;;;;;;;;;19.75;19.25;;;;;11.61;59.28;102251.41;5060381;28;45416;-66
2021/11/09 11:16:55;;;;;;;;;26.25;20.00;;;;;11.63;59.51;102249.59;5060092;28;45413;-74
2021/11/09 11:19:26;;;;;;;;;22.25;17.75;;;;;11.70;59.17;102246.84;5060251;28;46705;-73
2021/11/09 11:21:52;;;;;;;;;17.75;16.25;;;;;11.73;59.51;102250.38;5056247;28;45935;-73
2021/11/09 11:24:18;;;;;;;;;19.50;15.00;;;;;11.72;58.21;102240.56;5059549;28;45416;-73
2021/11/09 11:26:46;;;;;;;;;18.75;16.50;;;;;11.73;58.36;102236.09;5059137;28;45514;-73
2021/11/09 11:29:20;;;;;;;;;24.00;20.00;;;;;11.77;58.23;102232.50;5059580;28;46224;-73
2021/11/09 11:31:46;;;;;;;;;26.00;21.25;;;;;11.75;58.00;102231.63;5058977;28;45362;-73
2021/11/09 11:34:15;;;;;;;;;23.00;19.50;;;;;11.76;58.28;102223.59;5059373;28;45509;-73
2021/11/09 11:36:41;;;;;;;;;21.75;18.50;;;;;11.79;58.57;102220.84;5057536;28;45994;-73
2021/11/09 11:39:08;;;;;;;;;18.50;15.50;;;;;11.83;58.16;102219.03;5050766;28;45932;-73
2021/11/09 11:41:37;;;;;;;;;17.25;16.75;;;;;11.81;58.08;102202.09;5051824;28;45880;-72
2021/11/09 11:44:05;;;;;;;;;15.00;13.00;;;;;11.89;57.63;102208.22;5060290;28;45420;-72
2021/11/09 11:46:35;;;;;;;;;19.25;16.00;;;;;11.94;57.80;102203.72;5058838;28;45592;-72
2021/11/09 11:49:05;;;;;;;;;20.00;14.25;;;;;11.91;57.14;102189.47;5060498;28;45261;-73
2021/11/09 11:51:32;;;;;;;;;10.25;7.50;;;;;11.99;57.16;102203.66;5060018;28;45756;-72
2021/11/09 11:53:58;;;;;;;;;7.25;6.50;;;;;12.00;56.48;102192.94;5059971;28;45382;-73
2021/11/09 11:56:39;;;;;;;;;10.25;8.25;;;;;12.05;56.84;102195.53;5059276;28;45251;-72
2021/11/09 11:59:18;;;;;;;;;5.00;4.00;;;;;12.00;55.36;102178.69;5059037;28;47517;-72
2021/11/09 12:01:45;;;;;;;;;7.50;7.00;;;;;12.00;55.89;102184.91;5055018;28;45585;-73
2021/11/09 12:04:53;;;;;;;;;7.00;6.00;;;;;12.01;54.95;102196.47;5060501;28;45161;-72
2021/11/09 12:07:22;;;;;;;;;13.25;10.75;;;;;11.99;55.12;102180.44;5060290;28;45329;-73
2021/11/09 12:09:55;;;;;;;;;15.00;9.75;;;;;11.96;55.41;102176.94;5050867;28;46357;-73
2021/11/09 12:12:21;;;;;;;;;11.50;10.75;;;;;12.01;55.54;102181.34;5050931;28;46117;-73
2021/11/09 12:14:56;;;;;;;;;13.00;12.25;;;;;12.04;56.03;102181.28;5055860;28;45576;-72
2021/11/09 12:17:32;;;;;;;;;12.25;10.50;;;;;12.12;55.87;102180.28;5050916;28;45842;-73
2021/11/09 12:20:03;;;;;;;;;16.00;12.50;;;;;12.18;55.63;102166.81;5048675;28;45880;-72
2021/11/09 12:22:54;;;;;;;;;10.50;9.75;;;;;12.20;55.50;102157.81;5052400;28;45863;-74
2021/11/09 12:25:22;;;;;;;;;13.50;10.50;;;;;12.30;55.71;102158.56;5048727;28;45545;-74
2021/11/09 12:27:57;;;;;;;;;10.75;10.75;;;;;12.34;55.96;102154.03;5045657;28;45555;-70
2021/11/09 12:30:37;;;;;;;;;13.25;11.50;;;;;12.39;55.49;102154.81;5042333;28;45516;-68
2021/11/09 12:33:16;;;;;;;;;16.25;11.25;;;;;12.42;55.72;102144.94;5050920;28;45473;-74
2021/11/09 12:35:47;;;;;;;;;12.00;9.00;;;;;12.40;55.19;102140.53;5056215;28;46091;-76
2021/11/09 12:38:29;;;;;;;;;6.75;5.75;;;;;12.47;54.16;102147.53;5050853;28;45896;-75
2021/11/09 12:40:57;;;;;;;;;7.50;6.00;;;;;12.47;53.98;102146.69;5052371;28;45688;-78
2021/11/09 12:43:48;;;;;;;;;7.75;4.75;;;;;12.46;53.91;102148.44;5052534;28;45820;-75
2021/11/09 12:46:36;;;;;;;;;5.75;5.00;;;;;12.47;53.72;102147.53;5048467;28;45736;-75
2021/11/09 12:49:04;;;;;;;;;7.00;5.00;;;;;12.45;52.99;102143.16;5054569;28;45768;-70
2021/11/09 12:51:54;;;;;;;;;3.75;3.75;;;;;12.45;52.51;102146.69;5048275;28;46210;-74
2021/11/09 12:54:23;;;;;;;;;5.50;4.00;;;;;12.44;52.55;102134.19;5042579;28;45486;-70
2021/11/09 12:56:57;;;;;;;;;9.25;5.00;;;;;12.44;52.29;102142.25;5048672;28;45451;-72
2021/11/09 12:59:30;;;;;;;;;8.00;5.50;;;;;12.47;52.37;102136.84;5049263;28;45411;-72
2021/11/09 13:06:58;;;;;;;;;4.00;4.00;;;;;12.60;52.51;102126.78;5051246;28;45633;-71
2021/11/09 13:09:31;;;;;;;;;2.00;1.25;;;;;12.59;52.35;102115.16;5048758;28;45455;-69
2021/11/09 13:12:03;;;;;;;;;5.75;5.25;;;;;12.64;52.02;102128.47;5056878;28;47189;-69
2021/11/09 13:14:39;;;;;;;;;6.75;4.00;;;;;12.67;51.87;102127.56;5059388;28;45600;-69
2021/11/09 13:17:13;;;;;;;;;7.25;6.25;;;;;12.69;52.27;102133.75;5059038;28;45629;-70
2021/11/09 13:19:42;;;;;;;;;7.00;5.25;;;;;12.72;51.88;102129.22;5059468;28;45407;-70
2021/11/09 13:22:18;;;;;;;;;6.50;4.50;;;;;12.74;51.99;102126.50;5059303;28;45384;-70
2021/11/09 13:25:01;;;;;;;;;8.75;5.50;;;;;12.77;52.06;102124.66;5059458;28;45216;-76
2021/11/09 13:27:40;;;;;;;;;9.75;5.75;;;;;12.77;52.48;102108.56;5044867;28;45511;-70
2021/11/09 13:30:18;;;;;;;;;4.75;4.75;;;;;12.87;52.75;102120.00;5057811;28;45321;-70
2021/11/09 13:32:49;;;;;;;;;7.50;6.75;;;;;12.91;52.26;102118.13;5057327;28;46485;-70
2021/11/09 13:35:36;;;;;;;;;7.50;6.00;;;;;12.97;52.42;102126.94;5055673;28;45449;-70
2021/11/09 13:38:10;;;;;;;;;7.75;4.50;;;;;13.03;51.84;102127.72;5053425;28;45820;-70
2021/11/09 13:40:47;;;;;;;;;5.00;3.75;;;;;13.03;51.76;102119.69;5048973;28;45465;-70
2021/11/09 13:43:17;;;;;;;;;3.00;3.00;;;;;13.05;51.90;102121.44;5057618;28;45394;-70
2021/11/09 13:45:43;;;;;;;;;7.25;2.75;;;;;13.06;51.17;102124.97;5057854;28;45403;-70